sensor_id;sensor_type;location;lat;lon;timestamp;pressure;altitude;pressure_sealevel;temperature;humidity
57050;BME280;42935;50.966;16.992;2023-07-16T00:02:38;100891.88;;;19.91;100.00
57050;BME280;42935;50.966;16.992;2023-07-16T00:05:53;100889.59;;;19.91;100.00
57050;BME280;42935;50.966;16.992;2023-07-16T00:09:08;100887.00;;;19.89;100.00
57050;BME280;42935;50.966;16.992;2023-07-16T00:12:28;100887.77;;;19.61;100.00
57050;BME280;42935;50.966;16.992;2023-07-16T00:15:51;100881.91;;;19.65;100.00
57050;BME280;42935;50.966;16.992;2023-07-16T00:19:11;100880.11;;;19.59;100.00
57050;BME280;42935;50.966;16.992;2023-07-16T00:22:28;100878.09;;;19.37;100.00
57050;BME280;42935;50.966;16.992;2023-07-16T00:25:45;100875.69;;;19.23;100.00
57050;BME280;42935;50.966;16.992;2023-07-16T00:29:02;100876.63;;;19.26;100.00
57050;BME280;42935;50.966;16.992;2023-07-16T00:32:16;100879.96;;;19.45;100.00
57050;BME280;42935;50.966;16.992;2023-07-16T00:35:30;100864.60;;;19.32;100.00
57050;BME280;42935;50.966;16.992;2023-07-16T00:38:47;100870.99;;;19.39;100.00
57050;BME280;42935;50.966;16.992;2023-07-16T00:42:06;100868.30;;;19.32;100.00
57050;BME280;42935;50.966;16.992;2023-07-16T00:45:23;100860.07;;;19.11;100.00
57050;BME280;42935;50.966;16.992;2023-07-16T00:48:36;100875.07;;;19.11;100.00
57050;BME280;42935;50.966;16.992;2023-07-16T00:51:53;100871.54;;;18.92;100.00
57050;BME280;42935;50.966;16.992;2023-07-16T00:55:08;100878.10;;;19.02;100.00
57050;BME280;42935;50.966;16.992;2023-07-16T00:58:26;100878.80;;;19.16;100.00
57050;BME280;42935;50.966;16.992;2023-07-16T01:01:43;100866.99;;;19.15;100.00
57050;BME280;42935;50.966;16.992;2023-07-16T01:05:00;100879.44;;;19.23;100.00
57050;BME280;42935;50.966;16.992;2023-07-16T01:08:15;100854.40;;;18.95;100.00
57050;BME280;42935;50.966;16.992;2023-07-16T01:11:34;100861.35;;;18.69;100.00
57050;BME280;42935;50.966;16.992;2023-07-16T01:14:54;100853.55;;;18.64;100.00
57050;BME280;42935;50.966;16.992;2023-07-16T01:18:13;100847.32;;;18.81;100.00
57050;BME280;42935;50.966;16.992;2023-07-16T01:28:35;100857.14;;;18.80;100.00
57050;BME280;42935;50.966;16.992;2023-07-16T01:31:53;100841.66;;;18.80;100.00
57050;BME280;42935;50.966;16.992;2023-07-16T01:35:10;100850.54;;;18.82;100.00
57050;BME280;42935;50.966;16.992;2023-07-16T01:38:23;100850.63;;;18.88;100.00
57050;BME280;42935;50.966;16.992;2023-07-16T01:41:40;100837.43;;;18.74;100.00
57050;BME280;42935;50.966;16.992;2023-07-16T01:44:58;100838.53;;;18.69;100.00
57050;BME280;42935;50.966;16.992;2023-07-16T01:51:42;100827.04;;;18.27;100.00
57050;BME280;42935;50.966;16.992;2023-07-16T01:54:55;100833.77;;;18.45;100.00
57050;BME280;42935;50.966;16.992;2023-07-16T01:58:10;100833.13;;;18.38;100.00
57050;BME280;42935;50.966;16.992;2023-07-16T02:01:27;100832.43;;;18.50;100.00
57050;BME280;42935;50.966;16.992;2023-07-16T02:04:46;100827.34;;;18.50;100.00
57050;BME280;42935;50.966;16.992;2023-07-16T02:07:59;100843.45;;;18.64;100.00
57050;BME280;42935;50.966;16.992;2023-07-16T02:11:21;100842.71;;;18.70;100.00
57050;BME280;42935;50.966;16.992;2023-07-16T02:14:38;100837.05;;;18.56;100.00
57050;BME280;42935;50.966;16.992;2023-07-16T02:17:51;100840.88;;;18.41;100.00
57050;BME280;42935;50.966;16.992;2023-07-16T02:21:16;100842.52;;;18.42;100.00
57050;BME280;42935;50.966;16.992;2023-07-16T02:24:37;100853.87;;;18.66;100.00
57050;BME280;42935;50.966;16.992;2023-07-16T02:27:57;100851.02;;;18.47;100.00
57050;BME280;42935;50.966;16.992;2023-07-16T02:31:11;100855.09;;;18.42;100.00
57050;BME280;42935;50.966;16.992;2023-07-16T02:34:24;100862.21;;;18.61;100.00
57050;BME280;42935;50.966;16.992;2023-07-16T02:37:41;100862.13;;;18.39;100.00
57050;BME280;42935;50.966;16.992;2023-07-16T02:41:06;100851.80;;;18.42;100.00
57050;BME280;42935;50.966;16.992;2023-07-16T02:44:19;100862.76;;;18.58;100.00
57050;BME280;42935;50.966;16.992;2023-07-16T02:47:34;100867.84;;;18.57;100.00
57050;BME280;42935;50.966;16.992;2023-07-16T02:50:53;100879.04;;;18.61;100.00
57050;BME280;42935;50.966;16.992;2023-07-16T02:54:10;100877.08;;;18.75;100.00
57050;BME280;42935;50.966;16.992;2023-07-16T02:57:25;100875.00;;;18.68;100.00
57050;BME280;42935;50.966;16.992;2023-07-16T03:00:42;100890.30;;;18.58;100.00
57050;BME280;42935;50.966;16.992;2023-07-16T03:03:59;100916.55;;;18.59;100.00
57050;BME280;42935;50.966;16.992;2023-07-16T03:07:12;100914.23;;;18.28;100.00
57050;BME280;42935;50.966;16.992;2023-07-16T03:10:29;100899.42;;;17.93;100.00
57050;BME280;42935;50.966;16.992;2023-07-16T03:13:50;100898.67;;;18.19;100.00
57050;BME280;42935;50.966;16.992;2023-07-16T03:17:05;100901.97;;;18.14;100.00
57050;BME280;42935;50.966;16.992;2023-07-16T03:20:18;100919.96;;;18.37;100.00
57050;BME280;42935;50.966;16.992;2023-07-16T03:23:33;100919.96;;;18.50;100.00
57050;BME280;42935;50.966;16.992;2023-07-16T03:26:48;100921.90;;;18.35;100.00
57050;BME280;42935;50.966;16.992;2023-07-16T03:30:06;100939.77;;;18.44;100.00
57050;BME280;42935;50.966;16.992;2023-07-16T03:33:23;100961.57;;;18.42;100.00
57050;BME280;42935;50.966;16.992;2023-07-16T03:36:36;100997.96;;;18.68;100.00
57050;BME280;42935;50.966;16.992;2023-07-16T03:39:51;101057.72;;;18.67;100.00
57050;BME280;42935;50.966;16.992;2023-07-16T03:43:04;101135.27;;;18.36;100.00
57050;BME280;42935;50.966;16.992;2023-07-16T03:46:21;101106.86;;;19.14;100.00
57050;BME280;42935;50.966;16.992;2023-07-16T03:49:36;101067.88;;;19.41;100.00
57050;BME280;42935;50.966;16.992;2023-07-16T03:52:54;101075.54;;;19.72;100.00
57050;BME280;42935;50.966;16.992;2023-07-16T03:56:07;101081.51;;;19.81;100.00
57050;BME280;42935;50.966;16.992;2023-07-16T03:59:24;101084.06;;;19.86;100.00
57050;BME280;42935;50.966;16.992;2023-07-16T04:02:41;101099.71;;;20.39;100.00
57050;BME280;42935;50.966;16.992;2023-07-16T04:06:03;101104.47;;;20.96;100.00
57050;BME280;42935;50.966;16.992;2023-07-16T04:09:22;101088.55;;;21.50;100.00
57050;BME280;42935;50.966;16.992;2023-07-16T04:12:39;101117.36;;;21.80;100.00
57050;BME280;42935;50.966;16.992;2023-07-16T04:15:54;101127.53;;;21.86;100.00
57050;BME280;42935;50.966;16.992;2023-07-16T04:19:16;101119.57;;;22.07;100.00
57050;BME280;42935;50.966;16.992;2023-07-16T04:22:36;101116.39;;;22.11;100.00
57050;BME280;42935;50.966;16.992;2023-07-16T04:25:56;101140.72;;;22.23;100.00
57050;BME280;42935;50.966;16.992;2023-07-16T04:29:12;101144.79;;;22.26;100.00
57050;BME280;42935;50.966;16.992;2023-07-16T04:32:29;101159.56;;;22.43;100.00
57050;BME280;42935;50.966;16.992;2023-07-16T04:35:48;101163.95;;;22.43;100.00
57050;BME280;42935;50.966;16.992;2023-07-16T04:39:06;101172.62;;;22.63;100.00
57050;BME280;42935;50.966;16.992;2023-07-16T04:42:23;101168.52;;;22.85;100.00
57050;BME280;42935;50.966;16.992;2023-07-16T04:45:38;101178.89;;;22.83;100.00
57050;BME280;42935;50.966;16.992;2023-07-16T04:48:56;101176.63;;;22.98;96.17
57050;BME280;42935;50.966;16.992;2023-07-16T04:52:15;101176.93;;;23.09;92.37
57050;BME280;42935;50.966;16.992;2023-07-16T04:55:34;101188.73;;;23.18;91.55
57050;BME280;42935;50.966;16.992;2023-07-16T04:58:51;101177.39;;;23.08;93.26
57050;BME280;42935;50.966;16.992;2023-07-16T05:02:05;101201.42;;;23.45;92.47
57050;BME280;42935;50.966;16.992;2023-07-16T05:05:24;101204.65;;;23.74;87.68
57050;BME280;42935;50.966;16.992;2023-07-16T05:08:42;101202.60;;;23.76;88.40
57050;BME280;42935;50.966;16.992;2023-07-16T05:11:58;101200.02;;;23.86;84.73
57050;BME280;42935;50.966;16.992;2023-07-16T05:15:46;101161.12;;;23.74;83.21
57050;BME280;42935;50.966;16.992;2023-07-16T05:19:00;101202.70;;;23.95;83.69
57050;BME280;42935;50.966;16.992;2023-07-16T05:22:13;101215.93;;;24.25;80.88
57050;BME280;42935;50.966;16.992;2023-07-16T05:25:30;101212.87;;;24.26;81.04
57050;BME280;42935;50.966;16.992;2023-07-16T05:28:51;101229.05;;;24.21;79.75
57050;BME280;42935;50.966;16.992;2023-07-16T05:32:09;101228.14;;;24.21;80.21
57050;BME280;42935;50.966;16.992;2023-07-16T05:35:26;101218.80;;;24.25;77.46
57050;BME280;42935;50.966;16.992;2023-07-16T05:38:39;101223.39;;;24.33;76.06
57050;BME280;42935;50.966;16.992;2023-07-16T05:41:56;101233.18;;;24.47;75.74
57050;BME280;42935;50.966;16.992;2023-07-16T05:45:13;101244.43;;;24.59;75.23
57050;BME280;42935;50.966;16.992;2023-07-16T05:48:34;101242.12;;;24.70;74.68
57050;BME280;42935;50.966;16.992;2023-07-16T05:51:52;101233.27;;;24.89;75.08
57050;BME280;42935;50.966;16.992;2023-07-16T05:55:09;101241.84;;;25.06;72.89
57050;BME280;42935;50.966;16.992;2023-07-16T05:58:26;101244.18;;;25.04;71.65
57050;BME280;42935;50.966;16.992;2023-07-16T06:01:48;101244.43;;;25.07;72.46
57050;BME280;42935;50.966;16.992;2023-07-16T06:05:05;101264.92;;;24.97;71.48
57050;BME280;42935;50.966;16.992;2023-07-16T06:08:24;101261.03;;;24.77;72.74
57050;BME280;42935;50.966;16.992;2023-07-16T06:11:41;101265.52;;;24.73;72.77
57050;BME280;42935;50.966;16.992;2023-07-16T06:14:59;101275.66;;;24.87;74.77
57050;BME280;42935;50.966;16.992;2023-07-16T06:18:17;101281.62;;;24.96;73.28
57050;BME280;42935;50.966;16.992;2023-07-16T06:21:34;101271.66;;;24.88;74.87
57050;BME280;42935;50.966;16.992;2023-07-16T06:24:52;101280.75;;;24.98;75.68
57050;BME280;42935;50.966;16.992;2023-07-16T06:28:09;101273.30;;;24.97;74.86
57050;BME280;42935;50.966;16.992;2023-07-16T06:31:24;101282.10;;;25.06;75.36
57050;BME280;42935;50.966;16.992;2023-07-16T06:34:41;101295.66;;;25.06;74.18
57050;BME280;42935;50.966;16.992;2023-07-16T06:38:02;101300.76;;;24.88;73.90
57050;BME280;42935;50.966;16.992;2023-07-16T06:41:20;101287.29;;;24.59;74.20
57050;BME280;42935;50.966;16.992;2023-07-16T06:44:37;101297.77;;;24.69;74.60
57050;BME280;42935;50.966;16.992;2023-07-16T06:47:55;101319.16;;;24.80;73.22
57050;BME280;42935;50.966;16.992;2023-07-16T06:51:09;101329.18;;;24.72;74.55
57050;BME280;42935;50.966;16.992;2023-07-16T06:54:26;101344.15;;;24.79;74.40
57050;BME280;42935;50.966;16.992;2023-07-16T06:57:46;101339.76;;;24.83;75.25
57050;BME280;42935;50.966;16.992;2023-07-16T07:01:07;101354.76;;;24.85;74.14
57050;BME280;42935;50.966;16.992;2023-07-16T07:04:22;101312.98;;;24.70;74.61
57050;BME280;42935;50.966;16.992;2023-07-16T07:07:39;101342.83;;;25.10;73.83
57050;BME280;42935;50.966;16.992;2023-07-16T07:10:58;101284.63;;;24.75;74.02
57050;BME280;42935;50.966;16.992;2023-07-16T07:14:11;101326.73;;;24.89;73.32
57050;BME280;42935;50.966;16.992;2023-07-16T07:17:28;101332.19;;;25.03;74.10
57050;BME280;42935;50.966;16.992;2023-07-16T07:20:49;101335.30;;;24.99;73.46
57050;BME280;42935;50.966;16.992;2023-07-16T07:24:07;101348.86;;;24.97;74.12
57050;BME280;42935;50.966;16.992;2023-07-16T07:27:24;101354.84;;;24.91;74.76
57050;BME280;42935;50.966;16.992;2023-07-16T07:30:41;101344.86;;;25.07;74.85
57050;BME280;42935;50.966;16.992;2023-07-16T07:34:02;101347.61;;;25.07;74.52
57050;BME280;42935;50.966;16.992;2023-07-16T07:37:20;101315.09;;;25.38;73.56
57050;BME280;42935;50.966;16.992;2023-07-16T07:40:34;101328.87;;;26.27;70.01
57050;BME280;42935;50.966;16.992;2023-07-16T07:43:53;101338.90;;;26.42;68.95
57050;BME280;42935;50.966;16.992;2023-07-16T07:47:10;101320.52;;;26.58;68.44
57050;BME280;42935;50.966;16.992;2023-07-16T07:50:56;101326.81;;;26.63;66.09
57050;BME280;42935;50.966;16.992;2023-07-16T07:54:10;101337.58;;;26.79;67.31
57050;BME280;42935;50.966;16.992;2023-07-16T07:57:27;101329.89;;;27.08;65.74
57050;BME280;42935;50.966;16.992;2023-07-16T08:00:44;101327.73;;;26.64;66.82
57050;BME280;42935;50.966;16.992;2023-07-16T08:04:03;101315.00;;;26.81;65.65
57050;BME280;42935;50.966;16.992;2023-07-16T08:07:21;101308.30;;;26.94;66.51
57050;BME280;42935;50.966;16.992;2023-07-16T08:10:38;101306.49;;;27.17;64.97
57050;BME280;42935;50.966;16.992;2023-07-16T08:13:55;101308.79;;;27.17;63.02
57050;BME280;42935;50.966;16.992;2023-07-16T08:17:08;101316.86;;;26.65;62.69
57050;BME280;42935;50.966;16.992;2023-07-16T08:20:27;101310.71;;;27.25;61.67
57050;BME280;42935;50.966;16.992;2023-07-16T08:23:45;101285.96;;;27.52;63.29
57050;BME280;42935;50.966;16.992;2023-07-16T08:27:06;101298.49;;;27.71;60.52
57050;BME280;42935;50.966;16.992;2023-07-16T08:30:23;101279.91;;;28.10;58.31
57050;BME280;42935;50.966;16.992;2023-07-16T08:33:40;101274.96;;;28.06;60.72
57050;BME280;42935;50.966;16.992;2023-07-16T08:36:57;101277.12;;;28.44;58.28
57050;BME280;42935;50.966;16.992;2023-07-16T08:40:15;101270.69;;;28.07;59.39
57050;BME280;42935;50.966;16.992;2023-07-16T08:43:33;101255.38;;;28.89;58.71
57050;BME280;42935;50.966;16.992;2023-07-16T08:46:52;101246.93;;;29.11;57.46
57050;BME280;42935;50.966;16.992;2023-07-16T08:50:06;101245.19;;;27.93;61.60
57050;BME280;42935;50.966;16.992;2023-07-16T08:53:23;101259.05;;;28.15;66.04
57050;BME280;42935;50.966;16.992;2023-07-16T08:56:41;101256.84;;;28.10;64.58
57050;BME280;42935;50.966;16.992;2023-07-16T08:59:55;101263.40;;;27.71;66.32
57050;BME280;42935;50.966;16.992;2023-07-16T09:03:14;101263.74;;;27.59;64.57
57050;BME280;42935;50.966;16.992;2023-07-16T09:06:36;101287.96;;;27.39;65.25
57050;BME280;42935;50.966;16.992;2023-07-16T09:09:59;101269.91;;;27.38;67.38
57050;BME280;42935;50.966;16.992;2023-07-16T09:13:22;101269.62;;;26.22;87.59
57050;BME280;42935;50.966;16.992;2023-07-16T09:16:48;101247.85;;;26.05;99.63
57050;BME280;42935;50.966;16.992;2023-07-16T09:20:10;101256.83;;;26.38;100.00
57050;BME280;42935;50.966;16.992;2023-07-16T09:23:27;101250.13;;;26.59;100.00
57050;BME280;42935;50.966;16.992;2023-07-16T09:26:53;101257.70;;;26.53;100.00
57050;BME280;42935;50.966;16.992;2023-07-16T09:30:17;101260.10;;;27.17;99.27
57050;BME280;42935;50.966;16.992;2023-07-16T09:33:36;101268.31;;;27.11;94.71
57050;BME280;42935;50.966;16.992;2023-07-16T09:36:58;101291.56;;;26.98;91.37
57050;BME280;42935;50.966;16.992;2023-07-16T09:40:12;101308.08;;;27.43;87.52
57050;BME280;42935;50.966;16.992;2023-07-16T09:43:25;101286.30;;;28.04;84.99
57050;BME280;42935;50.966;16.992;2023-07-16T09:46:43;101290.78;;;28.47;80.66
57050;BME280;42935;50.966;16.992;2023-07-16T09:49:58;101304.87;;;28.42;70.55
57050;BME280;42935;50.966;16.992;2023-07-16T09:53:16;101304.03;;;28.11;73.18
57050;BME280;42935;50.966;16.992;2023-07-16T09:56:47;101317.55;;;27.50;75.23
57050;BME280;42935;50.966;16.992;2023-07-16T09:59:58;101313.35;;;27.63;75.48
57050;BME280;42935;50.966;16.992;2023-07-16T10:03:17;101321.80;;;27.86;75.46
57050;BME280;42935;50.966;16.992;2023-07-16T10:10:09;101326.98;;;27.74;77.69
57050;BME280;42935;50.966;16.992;2023-07-16T10:13:24;101335.64;;;27.66;76.36
57050;BME280;42935;50.966;16.992;2023-07-16T10:16:39;101337.69;;;27.71;75.50
57050;BME280;42935;50.966;16.992;2023-07-16T10:23:21;101330.80;;;27.34;73.40
57050;BME280;42935;50.966;16.992;2023-07-16T10:26:39;101345.59;;;27.53;80.65
57050;BME280;42935;50.966;16.992;2023-07-16T10:30:04;101343.13;;;26.94;75.93
57050;BME280;42935;50.966;16.992;2023-07-16T10:33:25;101331.77;;;27.04;76.13
57050;BME280;42935;50.966;16.992;2023-07-16T10:36:41;101350.54;;;27.17;76.89
57050;BME280;42935;50.966;16.992;2023-07-16T10:39:57;101351.11;;;27.53;75.32
57050;BME280;42935;50.966;16.992;2023-07-16T10:43:12;101346.12;;;27.43;74.72
57050;BME280;42935;50.966;16.992;2023-07-16T10:46:28;101361.99;;;27.33;76.78
57050;BME280;42935;50.966;16.992;2023-07-16T10:49:50;101360.77;;;27.46;79.51
57050;BME280;42935;50.966;16.992;2023-07-16T10:53:07;101359.88;;;27.29;80.98
57050;BME280;42935;50.966;16.992;2023-07-16T10:56:25;101354.87;;;26.73;82.63
57050;BME280;42935;50.966;16.992;2023-07-16T10:59:43;101371.34;;;26.20;82.28
57050;BME280;42935;50.966;16.992;2023-07-16T11:02:58;101371.16;;;25.78;86.69
57050;BME280;42935;50.966;16.992;2023-07-16T11:06:11;101384.05;;;25.44;83.13
57050;BME280;42935;50.966;16.992;2023-07-16T11:09:23;101375.79;;;25.29;83.35
57050;BME280;42935;50.966;16.992;2023-07-16T11:12:42;101380.93;;;25.14;84.07
57050;BME280;42935;50.966;16.992;2023-07-16T11:15:56;101387.62;;;25.24;85.18
57050;BME280;42935;50.966;16.992;2023-07-16T11:19:14;101391.58;;;25.28;85.88
57050;BME280;42935;50.966;16.992;2023-07-16T11:22:31;101387.95;;;25.23;85.02
57050;BME280;42935;50.966;16.992;2023-07-16T11:25:48;101380.62;;;25.26;83.11
57050;BME280;42935;50.966;16.992;2023-07-16T11:29:14;101406.68;;;25.11;84.05
57050;BME280;42935;50.966;16.992;2023-07-16T11:32:33;101400.59;;;25.15;85.73
57050;BME280;42935;50.966;16.992;2023-07-16T11:35:50;101395.20;;;25.21;85.32
57050;BME280;42935;50.966;16.992;2023-07-16T11:39:11;101407.00;;;25.33;82.98
57050;BME280;42935;50.966;16.992;2023-07-16T11:42:30;101398.21;;;25.47;80.79
57050;BME280;42935;50.966;16.992;2023-07-16T11:45:48;101404.37;;;25.74;80.45
57050;BME280;42935;50.966;16.992;2023-07-16T11:49:05;101353.45;;;25.46;79.64
57050;BME280;42935;50.966;16.992;2023-07-16T11:52:27;101403.01;;;25.91;77.54
57050;BME280;42935;50.966;16.992;2023-07-16T11:55:43;101408.67;;;25.65;76.60
57050;BME280;42935;50.966;16.992;2023-07-16T11:59:00;101407.10;;;25.87;76.95
57050;BME280;42935;50.966;16.992;2023-07-16T12:02:15;101410.38;;;25.84;75.25
57050;BME280;42935;50.966;16.992;2023-07-16T12:05:28;101403.69;;;25.98;75.36
57050;BME280;42935;50.966;16.992;2023-07-16T12:08:45;101410.23;;;26.32;73.11
57050;BME280;42935;50.966;16.992;2023-07-16T12:12:03;101395.64;;;26.36;73.67
57050;BME280;42935;50.966;16.992;2023-07-16T12:15:26;101405.73;;;26.51;70.56
57050;BME280;42935;50.966;16.992;2023-07-16T12:18:48;101398.46;;;26.32;70.24
57050;BME280;42935;50.966;16.992;2023-07-16T12:22:06;101407.18;;;26.36;70.96
57050;BME280;42935;50.966;16.992;2023-07-16T12:25:23;101416.65;;;26.28;70.00
57050;BME280;42935;50.966;16.992;2023-07-16T12:28:40;101414.74;;;26.27;70.42
57050;BME280;42935;50.966;16.992;2023-07-16T12:32:02;101399.81;;;26.47;70.16
57050;BME280;42935;50.966;16.992;2023-07-16T12:35:19;101398.41;;;26.39;69.21
57050;BME280;42935;50.966;16.992;2023-07-16T12:38:36;101400.79;;;26.14;69.96
57050;BME280;42935;50.966;16.992;2023-07-16T12:41:53;101388.95;;;25.98;70.78
57050;BME280;42935;50.966;16.992;2023-07-16T12:45:10;101389.09;;;26.19;72.61
57050;BME280;42935;50.966;16.992;2023-07-16T12:48:25;101396.54;;;26.29;72.78
57050;BME280;42935;50.966;16.992;2023-07-16T12:51:41;101394.38;;;25.85;74.64
57050;BME280;42935;50.966;16.992;2023-07-16T12:55:02;101379.13;;;26.20;73.45
57050;BME280;42935;50.966;16.992;2023-07-16T12:58:19;101377.18;;;25.97;76.47
57050;BME280;42935;50.966;16.992;2023-07-16T13:01:31;101393.50;;;25.76;74.34
57050;BME280;42935;50.966;16.992;2023-07-16T13:04:53;101390.94;;;25.71;75.25
57050;BME280;42935;50.966;16.992;2023-07-16T13:08:10;101393.46;;;25.99;74.70
57050;BME280;42935;50.966;16.992;2023-07-16T13:11:25;101398.86;;;26.11;74.58
57050;BME280;42935;50.966;16.992;2023-07-16T13:14:37;101408.51;;;26.22;74.58
57050;BME280;42935;50.966;16.992;2023-07-16T13:17:55;101410.52;;;26.55;74.97
57050;BME280;42935;50.966;16.992;2023-07-16T13:21:11;101403.14;;;26.40;75.70
57050;BME280;42935;50.966;16.992;2023-07-16T13:24:24;101393.69;;;26.41;75.27
57050;BME280;42935;50.966;16.992;2023-07-16T13:27:42;101397.26;;;26.60;75.09
57050;BME280;42935;50.966;16.992;2023-07-16T13:30:55;101397.02;;;26.57;75.71
57050;BME280;42935;50.966;16.992;2023-07-16T13:34:16;101407.88;;;27.13;73.12
57050;BME280;42935;50.966;16.992;2023-07-16T13:37:37;101417.59;;;26.92;72.63
57050;BME280;42935;50.966;16.992;2023-07-16T13:40:50;101405.80;;;27.47;73.36
57050;BME280;42935;50.966;16.992;2023-07-16T13:44:05;101411.63;;;28.23;68.13
57050;BME280;42935;50.966;16.992;2023-07-16T13:47:23;101424.92;;;27.81;69.85
57050;BME280;42935;50.966;16.992;2023-07-16T13:50:44;101419.48;;;29.06;67.57
57050;BME280;42935;50.966;16.992;2023-07-16T13:54:04;101417.41;;;29.61;65.63
57050;BME280;42935;50.966;16.992;2023-07-16T13:57:21;101406.19;;;30.41;62.77
57050;BME280;42935;50.966;16.992;2023-07-16T14:00:38;101407.22;;;30.37;62.09
57050;BME280;42935;50.966;16.992;2023-07-16T14:03:55;101406.91;;;29.15;64.83
57050;BME280;42935;50.966;16.992;2023-07-16T14:07:08;101402.95;;;28.93;65.75
57050;BME280;42935;50.966;16.992;2023-07-16T14:10:26;101406.59;;;28.42;68.10
57050;BME280;42935;50.966;16.992;2023-07-16T14:13:45;101407.01;;;27.39;69.02
57050;BME280;42935;50.966;16.992;2023-07-16T14:17:09;101410.20;;;27.81;69.94
57050;BME280;42935;50.966;16.992;2023-07-16T14:20:24;101400.40;;;27.23;71.65
57050;BME280;42935;50.966;16.992;2023-07-16T14:23:42;101410.05;;;27.36;72.27
57050;BME280;42935;50.966;16.992;2023-07-16T14:26:59;101398.19;;;27.45;72.66
57050;BME280;42935;50.966;16.992;2023-07-16T14:30:18;101412.80;;;27.32;72.49
57050;BME280;42935;50.966;16.992;2023-07-16T14:33:39;101416.45;;;26.89;75.06
57050;BME280;42935;50.966;16.992;2023-07-16T14:36:57;101400.21;;;26.27;77.59
57050;BME280;42935;50.966;16.992;2023-07-16T14:40:14;101403.89;;;26.52;77.65
57050;BME280;42935;50.966;16.992;2023-07-16T14:43:32;101405.60;;;26.59;76.28
57050;BME280;42935;50.966;16.992;2023-07-16T14:46:50;101387.80;;;26.92;74.34
57050;BME280;42935;50.966;16.992;2023-07-16T14:50:03;101375.56;;;26.95;73.33
57050;BME280;42935;50.966;16.992;2023-07-16T14:53:27;101384.02;;;27.12;73.18
57050;BME280;42935;50.966;16.992;2023-07-16T14:56:45;101367.35;;;27.21;73.13
57050;BME280;42935;50.966;16.992;2023-07-16T15:00:06;101361.30;;;27.19;72.99
57050;BME280;42935;50.966;16.992;2023-07-16T15:03:31;101374.73;;;27.12;75.15
57050;BME280;42935;50.966;16.992;2023-07-16T15:06:46;101362.58;;;27.01;74.41
57050;BME280;42935;50.966;16.992;2023-07-16T15:10:08;101366.27;;;27.17;75.26
57050;BME280;42935;50.966;16.992;2023-07-16T15:13:24;101372.62;;;27.11;80.22
57050;BME280;42935;50.966;16.992;2023-07-16T15:16:43;101367.20;;;27.05;77.67
57050;BME280;42935;50.966;16.992;2023-07-16T15:23:43;101372.11;;;26.93;77.09
57050;BME280;42935;50.966;16.992;2023-07-16T15:27:03;101376.15;;;26.63;81.91
57050;BME280;42935;50.966;16.992;2023-07-16T15:30:21;101369.62;;;26.20;86.01
57050;BME280;42935;50.966;16.992;2023-07-16T15:33:38;101386.02;;;26.44;84.84
57050;BME280;42935;50.966;16.992;2023-07-16T15:36:56;101384.62;;;26.50;86.91
57050;BME280;42935;50.966;16.992;2023-07-16T15:40:14;101377.15;;;26.71;83.46
57050;BME280;42935;50.966;16.992;2023-07-16T15:43:36;101369.07;;;27.39;82.35
57050;BME280;42935;50.966;16.992;2023-07-16T15:46:53;101353.23;;;28.01;79.91
57050;BME280;42935;50.966;16.992;2023-07-16T15:50:10;101349.86;;;28.04;79.92
57050;BME280;42935;50.966;16.992;2023-07-16T15:53:30;101347.01;;;28.05;76.15
57050;BME280;42935;50.966;16.992;2023-07-16T15:56:43;101353.70;;;28.15;75.13
57050;BME280;42935;50.966;16.992;2023-07-16T15:59:58;101349.11;;;27.82;76.79
57050;BME280;42935;50.966;16.992;2023-07-16T16:03:17;101349.80;;;28.22;76.63
57050;BME280;42935;50.966;16.992;2023-07-16T16:06:35;101360.81;;;28.42;76.12
57050;BME280;42935;50.966;16.992;2023-07-16T16:09:52;101352.63;;;29.00;75.46
57050;BME280;42935;50.966;16.992;2023-07-16T16:13:10;101343.62;;;29.71;66.49
57050;BME280;42935;50.966;16.992;2023-07-16T16:16:26;101350.50;;;29.63;69.71
57050;BME280;42935;50.966;16.992;2023-07-16T16:19:44;101350.12;;;28.75;67.68
57050;BME280;42935;50.966;16.992;2023-07-16T16:23:09;101338.59;;;28.42;72.62
57050;BME280;42935;50.966;16.992;2023-07-16T16:26:27;101340.30;;;28.86;71.04
57050;BME280;42935;50.966;16.992;2023-07-16T16:29:45;101348.05;;;29.89;63.74
57050;BME280;42935;50.966;16.992;2023-07-16T16:33:03;101337.94;;;30.02;58.95
57050;BME280;42935;50.966;16.992;2023-07-16T16:36:25;101343.01;;;30.99;57.00
57050;BME280;42935;50.966;16.992;2023-07-16T16:39:42;101347.08;;;31.21;58.33
57050;BME280;42935;50.966;16.992;2023-07-16T16:42:57;101342.34;;;30.90;55.45
57050;BME280;42935;50.966;16.992;2023-07-16T16:46:14;101336.51;;;30.12;57.11
57050;BME280;42935;50.966;16.992;2023-07-16T16:49:35;101332.27;;;30.02;57.70
57050;BME280;42935;50.966;16.992;2023-07-16T16:52:48;101343.91;;;30.56;55.24
57050;BME280;42935;50.966;16.992;2023-07-16T16:56:11;101351.56;;;30.85;53.12
57050;BME280;42935;50.966;16.992;2023-07-16T16:59:30;101357.59;;;30.16;53.72
57050;BME280;42935;50.966;16.992;2023-07-16T17:02:54;101347.64;;;30.32;54.27
57050;BME280;42935;50.966;16.992;2023-07-16T17:06:12;101356.04;;;30.08;54.28
57050;BME280;42935;50.966;16.992;2023-07-16T17:09:27;101365.10;;;29.89;55.00
57050;BME280;42935;50.966;16.992;2023-07-16T17:12:41;101366.37;;;29.78;52.22
57050;BME280;42935;50.966;16.992;2023-07-16T17:16:02;101362.14;;;29.66;52.53
57050;BME280;42935;50.966;16.992;2023-07-16T17:19:21;101353.13;;;29.63;53.84